createdAt,value
2018-07-24T00:00:40.987Z,94.90
2018-07-24T00:03:09.411Z,94.90
2018-07-24T00:05:36.931Z,95.20
2018-07-24T00:08:04.799Z,95.80
2018-07-24T00:10:32.414Z,95.40
2018-07-24T00:12:59.934Z,94.80
2018-07-24T00:15:27.495Z,94.40
2018-07-24T00:17:55.619Z,94.80
2018-07-24T00:20:24.262Z,94.70
2018-07-24T00:22:52.235Z,95.20
2018-07-24T00:25:19.759Z,96.10
2018-07-24T00:27:47.814Z,96.20
2018-07-24T00:32:42.751Z,96.10
2018-07-24T00:35:10.368Z,96.10
2018-07-24T00:37:38.166Z,95.80
2018-07-24T00:40:05.782Z,95.50
2018-07-24T00:42:33.358Z,95.80
2018-07-24T00:45:01.276Z,96.10
2018-07-24T00:47:29.357Z,96.80
2018-07-24T00:49:57.609Z,96.60
2018-07-24T00:52:26.019Z,97.40
2018-07-24T00:54:53.502Z,96.30
2018-07-24T00:57:20.998Z,97.00
2018-07-24T00:59:49.038Z,96.30
2018-07-24T01:02:16.558Z,97.10
2018-07-24T01:04:44.055Z,96.70
2018-07-24T01:07:11.603Z,96.60
2018-07-24T01:09:39.134Z,98.10
2018-07-24T01:12:06.830Z,99.90
2018-07-24T01:14:34.375Z,97.50
2018-07-24T01:17:02.294Z,98.50
2018-07-24T01:19:30.976Z,97.60
2018-07-24T01:21:58.500Z,98.60
2018-07-24T01:24:26.720Z,97.80
2018-07-24T01:26:55.611Z,98.00
2018-07-24T01:31:50.575Z,98.10
2018-07-24T01:34:18.088Z,98.10
2018-07-24T01:36:45.608Z,97.70
2018-07-24T01:39:13.203Z,97.90
2018-07-24T01:41:40.721Z,98.90
2018-07-24T01:44:08.589Z,98.30
2018-07-24T01:46:36.838Z,98.00
2018-07-24T01:49:04.383Z,97.30
2018-07-24T01:51:32.376Z,97.20
2018-07-24T01:54:00.467Z,97.40
2018-07-24T01:56:28.414Z,97.50
2018-07-24T01:58:56.073Z,99.30
2018-07-24T02:01:23.582Z,99.30
2018-07-24T02:03:51.094Z,99.40
2018-07-24T02:06:18.590Z,98.90
2018-07-24T02:08:46.167Z,99.30
2018-07-24T02:11:13.679Z,99.20
2018-07-24T02:13:41.695Z,98.60
2018-07-24T02:16:09.244Z,98.30
2018-07-24T02:18:37.081Z,98.20
2018-07-24T02:21:05.020Z,97.90
2018-07-24T02:23:32.581Z,97.90
2018-07-24T02:26:00.084Z,99.50
2018-07-24T02:28:28.421Z,99.90
2018-07-24T02:30:55.924Z,99.90
2018-07-24T02:33:23.418Z,99.90
2018-07-24T02:35:50.964Z,99.80
2018-07-24T02:38:19.324Z,99.90
2018-07-24T02:40:46.819Z,99.30
2018-07-24T02:43:14.787Z,99.30
2018-07-24T02:45:42.686Z,99.30
2018-07-24T02:48:10.234Z,99.10
2018-07-24T02:50:38.536Z,99.10
2018-07-24T02:53:06.351Z,98.60
2018-07-24T02:55:34.331Z,98.40
2018-07-24T02:58:01.843Z,98.40
2018-07-24T03:00:29.364Z,98.20
2018-07-24T03:02:56.908Z,98.20
2018-07-24T03:05:24.426Z,98.40
2018-07-24T03:07:52.007Z,98.60
2018-07-24T03:10:20.119Z,99.00
2018-07-24T03:12:47.613Z,99.10
2018-07-24T03:15:15.717Z,99.60
2018-07-24T03:17:43.220Z,99.30
2018-07-24T03:20:11.275Z,99.30
2018-07-24T03:22:38.783Z,99.40
2018-07-24T03:25:06.284Z,98.60
2018-07-24T03:27:34.187Z,99.00
2018-07-24T03:30:01.737Z,99.40
2018-07-24T03:32:30.195Z,98.70
2018-07-24T03:34:57.678Z,99.70
2018-07-24T03:37:25.174Z,99.60
2018-07-24T03:39:52.711Z,99.10
2018-07-24T03:42:20.878Z,99.90
2018-07-24T03:47:16.174Z,99.40
2018-07-24T03:49:43.687Z,99.70
2018-07-24T03:52:11.787Z,98.60
2018-07-24T03:54:39.291Z,99.60
2018-07-24T03:57:06.815Z,99.70
2018-07-24T03:59:34.343Z,99.20
2018-07-24T04:02:01.852Z,98.80
2018-07-24T04:04:29.593Z,98.40
2018-07-24T04:06:57.127Z,99.80
2018-07-24T04:09:25.407Z,99.10
2018-07-24T04:14:20.655Z,99.30
2018-07-24T04:16:48.526Z,99.90
2018-07-24T04:19:16.894Z,99.20
2018-07-24T04:21:45.071Z,99.90
2018-07-24T04:24:12.583Z,99.90
2018-07-24T04:26:40.502Z,99.40
2018-07-24T04:29:08.004Z,98.70
2018-07-24T04:31:35.519Z,98.50
2018-07-24T04:34:03.047Z,99.40
2018-07-24T04:36:30.597Z,99.20
2018-07-24T04:38:58.203Z,99.60
2018-07-24T04:41:26.203Z,99.20
2018-07-24T04:43:54.183Z,99.10
2018-07-24T04:48:49.102Z,98.80
2018-07-24T04:51:17.167Z,98.50
2018-07-24T04:53:44.662Z,98.40
2018-07-24T04:56:12.151Z,97.50
2018-07-24T04:58:39.659Z,98.10
2018-07-24T05:01:07.187Z,97.90
2018-07-24T05:03:34.780Z,97.90
2018-07-24T05:06:03.383Z,97.60
2018-07-24T05:08:30.875Z,97.60
2018-07-24T05:10:59.023Z,97.50
2018-07-24T05:13:27.012Z,96.90
2018-07-24T05:15:54.975Z,96.50
2018-07-24T05:18:22.515Z,96.10
2018-07-24T05:20:50.707Z,95.50
2018-07-24T05:23:18.236Z,95.40
2018-07-24T05:25:45.813Z,95.10
2018-07-24T05:28:13.850Z,94.80
2018-07-24T05:30:41.351Z,94.50
2018-07-24T05:33:08.914Z,94.00
2018-07-24T05:35:36.428Z,93.60
2018-07-24T05:38:04.823Z,93.30
2018-07-24T05:40:32.343Z,93.20
2018-07-24T05:42:59.883Z,92.70
2018-07-24T05:45:27.899Z,91.40
2018-07-24T05:47:56.183Z,91.60
2018-07-24T05:50:23.789Z,91.20
2018-07-24T05:52:51.823Z,91.10
2018-07-24T05:55:19.692Z,91.20
2018-07-24T05:57:47.247Z,90.40
2018-07-24T06:00:14.794Z,90.20
2018-07-24T06:02:42.332Z,89.90
2018-07-24T06:05:10.200Z,89.10
2018-07-24T06:07:38.270Z,88.90
2018-07-24T06:10:05.851Z,87.90
2018-07-24T06:12:33.784Z,87.60
2018-07-24T06:15:01.288Z,87.60
2018-07-24T06:17:29.184Z,87.70
2018-07-24T06:19:57.143Z,87.70
2018-07-24T06:22:24.676Z,86.70
2018-07-24T06:24:52.215Z,86.60
2018-07-24T06:27:20.074Z,85.70
2018-07-24T06:29:47.668Z,85.50
2018-07-24T06:32:15.198Z,86.00
2018-07-24T06:34:43.483Z,84.70
2018-07-24T06:37:11.047Z,85.30
2018-07-24T06:39:38.607Z,84.50
2018-07-24T06:42:06.134Z,84.90
2018-07-24T06:44:34.170Z,83.70
2018-07-24T06:47:01.695Z,83.00
2018-07-24T06:49:29.214Z,83.60
2018-07-24T06:51:57.135Z,83.40
2018-07-24T06:54:24.598Z,83.50
2018-07-24T06:59:19.865Z,83.20
2018-07-24T07:01:47.946Z,81.20
2018-07-24T07:04:15.837Z,80.60
2018-07-24T07:06:43.670Z,80.70
2018-07-24T07:09:11.574Z,80.50
2018-07-24T07:11:39.062Z,80.00
2018-07-24T07:14:06.806Z,79.30
2018-07-24T07:16:34.702Z,80.30
2018-07-24T07:19:03.422Z,79.60
2018-07-24T07:23:59.208Z,78.10
2018-07-24T07:26:27.092Z,78.90
2018-07-24T07:28:54.652Z,78.20
2018-07-24T07:31:22.167Z,78.40
2018-07-24T07:33:50.155Z,77.60
2018-07-24T07:38:45.781Z,77.80
2018-07-24T07:41:13.444Z,77.40
2018-07-24T07:46:09.657Z,76.50
2018-07-24T07:48:37.197Z,77.50
2018-07-24T07:51:05.051Z,77.40
2018-07-24T07:53:33.098Z,77.20
2018-07-24T07:56:00.611Z,76.00
2018-07-24T07:58:29.270Z,76.00
2018-07-24T08:00:57.230Z,75.10
2018-07-24T08:03:25.299Z,74.10
2018-07-24T08:05:52.843Z,74.60
2018-07-24T08:08:20.682Z,74.70
2018-07-24T08:10:48.174Z,72.70
2018-07-24T08:13:15.667Z,73.20
2018-07-24T08:18:11.276Z,74.60
2018-07-24T08:20:39.310Z,72.90
2018-07-24T08:25:34.263Z,72.10
2018-07-24T08:28:02.167Z,72.60
2018-07-24T08:30:30.166Z,72.20
2018-07-24T08:32:57.708Z,71.60
2018-07-24T08:35:25.211Z,70.50
2018-07-24T08:37:53.430Z,70.30
2018-07-24T08:40:21.395Z,70.50
2018-07-24T08:42:48.926Z,69.70
2018-07-24T08:45:16.940Z,69.30
2018-07-24T08:47:45.015Z,69.20
2018-07-24T08:50:12.601Z,66.00
2018-07-24T08:52:40.561Z,64.90
2018-07-24T08:55:08.244Z,64.60
2018-07-24T08:57:36.086Z,67.70
2018-07-24T09:00:04.054Z,67.60
2018-07-24T09:02:32.183Z,65.80
2018-07-24T09:05:00.581Z,67.40
2018-07-24T09:07:28.092Z,66.80
2018-07-24T09:09:55.603Z,66.60
2018-07-24T09:12:23.155Z,67.20
2018-07-24T09:14:50.668Z,67.00
2018-07-24T09:17:18.254Z,66.20
2018-07-24T09:19:46.503Z,65.10
2018-07-24T09:22:14.627Z,62.40
2018-07-24T09:24:43.395Z,61.80
2018-07-24T09:27:11.423Z,63.40
2018-07-24T09:29:39.277Z,63.60
2018-07-24T09:32:06.877Z,60.60
2018-07-24T09:34:34.346Z,62.80
2018-07-24T09:37:01.931Z,60.50
2018-07-24T09:39:29.763Z,61.30
2018-07-24T09:44:25.504Z,61.70
2018-07-24T09:46:54.313Z,60.80
2018-07-24T09:49:21.852Z,59.10
2018-07-24T09:51:49.964Z,59.00
2018-07-24T09:54:17.859Z,61.50
2018-07-24T09:56:45.423Z,60.80
2018-07-24T09:59:13.403Z,58.10
2018-07-24T10:01:40.914Z,59.00
2018-07-24T10:04:08.827Z,56.50
2018-07-24T10:06:36.381Z,57.70
2018-07-24T10:09:08.008Z,54.20
2018-07-24T10:14:03.367Z,54.00
2018-07-24T10:16:30.948Z,54.90
2018-07-24T10:18:58.469Z,54.80
2018-07-24T10:21:26.635Z,56.00
2018-07-24T10:23:54.260Z,55.80
2018-07-24T10:26:22.174Z,51.60
2018-07-24T10:28:49.734Z,53.50
2018-07-24T10:31:17.323Z,52.30
2018-07-24T10:33:45.049Z,52.50
2018-07-24T10:36:13.170Z,51.90
2018-07-24T10:38:41.950Z,51.60
2018-07-24T10:43:37.449Z,51.00
2018-07-24T10:46:05.161Z,51.20
2018-07-24T10:48:32.679Z,51.20
2018-07-24T10:51:01.037Z,50.90
2018-07-24T10:53:28.631Z,49.50
2018-07-24T10:55:56.991Z,49.00
2018-07-24T10:58:24.577Z,50.50
2018-07-24T11:00:52.150Z,49.90
2018-07-24T11:03:19.718Z,50.10
2018-07-24T11:05:47.247Z,49.10
2018-07-24T11:08:15.582Z,45.90
2018-07-24T11:10:43.116Z,47.80
2018-07-24T11:13:10.606Z,46.40
2018-07-24T11:15:38.126Z,46.20
2018-07-24T11:18:05.709Z,45.80
2018-07-24T11:20:33.768Z,45.80
2018-07-24T11:23:02.173Z,44.90
2018-07-24T11:25:29.698Z,45.10
2018-07-24T11:27:57.542Z,45.00
2018-07-24T11:30:25.155Z,46.70
2018-07-24T11:32:53.022Z,46.60
2018-07-24T11:35:20.983Z,45.80
2018-07-24T11:37:48.522Z,44.90
2018-07-24T11:40:16.405Z,45.80
2018-07-24T11:42:45.148Z,45.30
2018-07-24T11:45:13.744Z,44.50
2018-07-24T11:47:41.264Z,46.00
2018-07-24T11:50:09.260Z,45.90
2018-07-24T11:52:36.810Z,46.40
2018-07-24T11:55:04.950Z,45.70
2018-07-24T11:57:32.550Z,46.50
2018-07-24T12:00:00.730Z,45.70
2018-07-24T12:02:28.286Z,46.30
2018-07-24T12:04:55.804Z,44.90
2018-07-24T12:09:50.847Z,44.60
2018-07-24T12:12:19.212Z,43.00
2018-07-24T12:17:14.196Z,44.70
2018-07-24T12:19:42.364Z,45.10
2018-07-24T12:22:10.216Z,45.40
2018-07-24T12:24:37.723Z,43.60
2018-07-24T12:27:06.109Z,43.50
2018-07-24T12:29:34.131Z,43.30
2018-07-24T12:32:02.103Z,43.70
2018-07-24T12:34:29.609Z,42.00
2018-07-24T12:36:57.179Z,41.10
2018-07-24T12:39:25.923Z,42.80
2018-07-24T12:41:53.819Z,42.70
2018-07-24T12:44:21.645Z,43.50
2018-07-24T12:54:13.270Z,42.20
2018-07-24T12:56:40.766Z,43.10
2018-07-24T12:59:08.314Z,43.60
2018-07-24T13:01:35.828Z,42.80
2018-07-24T13:04:04.145Z,42.20
2018-07-24T13:06:31.637Z,42.50
2018-07-24T13:08:59.163Z,42.50
2018-07-24T13:11:27.302Z,42.60
2018-07-24T13:13:55.388Z,42.70
2018-07-24T13:18:51.419Z,41.90
2018-07-24T13:21:19.411Z,42.80
2018-07-24T13:26:15.368Z,42.70
2018-07-24T13:31:10.772Z,40.60
2018-07-24T13:33:38.419Z,41.80
2018-07-24T13:36:07.351Z,41.50
2018-07-24T13:43:31.112Z,42.30
2018-07-24T13:45:59.352Z,41.00
2018-07-24T13:48:27.531Z,41.20
2018-07-24T13:53:22.491Z,41.40
2018-07-24T13:55:50.543Z,42.00
2018-07-24T13:58:18.076Z,41.30
2018-07-24T14:00:45.637Z,40.30
2018-07-24T14:03:13.171Z,41.00
2018-07-24T14:05:41.332Z,39.90
2018-07-24T14:08:08.822Z,38.60
2018-07-24T14:10:36.342Z,37.90
2018-07-24T14:13:04.039Z,39.00
2018-07-24T14:15:31.870Z,37.50
2018-07-24T14:17:59.366Z,36.60
2018-07-24T14:20:27.502Z,36.70
2018-07-24T14:22:55.019Z,36.40
2018-07-24T14:25:23.238Z,35.90
2018-07-24T14:27:51.155Z,35.80
2018-07-24T14:30:18.703Z,35.90
2018-07-24T14:32:46.862Z,35.00
2018-07-24T14:35:14.947Z,36.10
2018-07-24T14:37:42.691Z,35.60
2018-07-24T14:40:10.209Z,35.40
2018-07-24T14:42:38.138Z,34.90
2018-07-24T14:45:06.071Z,34.80
2018-07-24T14:47:34.031Z,33.80
2018-07-24T14:50:01.540Z,34.90
2018-07-24T14:54:56.574Z,34.50
2018-07-24T14:57:24.078Z,33.30
2018-07-24T14:59:52.163Z,33.10
2018-07-24T15:02:19.679Z,33.60
2018-07-24T15:04:47.496Z,33.80
2018-07-24T15:07:15.050Z,33.10
2018-07-24T15:09:42.563Z,33.70
2018-07-24T15:12:10.191Z,33.00
2018-07-24T15:14:38.427Z,32.50
2018-07-24T15:17:05.979Z,32.60
2018-07-24T15:19:34.635Z,33.70
2018-07-24T15:22:02.127Z,33.90
2018-07-24T15:24:30.141Z,32.50
2018-07-24T15:26:58.036Z,31.10
2018-07-24T15:29:25.569Z,31.40
2018-07-24T15:31:53.420Z,31.50
2018-07-24T15:34:21.440Z,32.40
2018-07-24T15:36:48.860Z,33.60
2018-07-24T15:39:16.757Z,32.60
2018-07-24T15:41:44.659Z,33.10
2018-07-24T15:44:12.699Z,32.20
2018-07-24T15:46:40.772Z,32.40
2018-07-24T15:49:08.300Z,32.00
2018-07-24T15:51:35.803Z,32.30
2018-07-24T15:54:03.839Z,29.70
2018-07-24T15:56:31.359Z,29.40
2018-07-24T15:58:58.931Z,31.10
2018-07-24T16:01:26.455Z,31.10
2018-07-24T16:03:53.973Z,30.50
2018-07-24T16:06:21.831Z,30.60
2018-07-24T16:08:49.684Z,30.80
2018-07-24T16:11:17.592Z,30.20
2018-07-24T16:13:45.407Z,30.10
2018-07-24T16:16:13.783Z,31.10
2018-07-24T16:18:41.276Z,30.50
2018-07-24T16:21:09.173Z,30.20
2018-07-24T16:23:37.396Z,30.10
2018-07-24T16:26:05.570Z,29.90
2018-07-24T16:31:01.387Z,28.80
2018-07-24T16:33:29.286Z,29.10
2018-07-24T16:35:57.363Z,29.10
2018-07-24T16:40:53.924Z,31.30
2018-07-24T16:43:21.910Z,32.20
2018-07-24T16:45:49.582Z,32.30
2018-07-24T16:48:17.095Z,33.10
2018-07-24T16:50:44.645Z,33.50
2018-07-24T16:53:12.183Z,34.40
2018-07-24T16:55:39.861Z,35.50
2018-07-24T16:58:07.419Z,35.40
2018-07-24T17:00:34.933Z,36.20
2018-07-24T17:03:02.444Z,37.10
2018-07-24T17:05:29.967Z,37.40
2018-07-24T17:07:57.590Z,36.60
2018-07-24T17:10:25.885Z,38.00
2018-07-24T17:12:53.800Z,38.50
2018-07-24T17:15:22.011Z,39.30
2018-07-24T17:17:49.534Z,39.90
2018-07-24T17:22:45.895Z,43.20
2018-07-24T17:27:41.781Z,45.10
2018-07-24T17:30:09.323Z,44.70
2018-07-24T17:32:37.387Z,46.00
2018-07-24T17:40:01.765Z,45.60
2018-07-24T17:42:29.827Z,47.20
2018-07-24T17:44:57.670Z,46.70
2018-07-24T17:47:25.201Z,47.20
2018-07-24T17:49:52.696Z,47.40
2018-07-24T17:52:20.231Z,47.70
2018-07-24T17:54:47.742Z,48.80
2018-07-24T17:57:15.334Z,49.00
2018-07-24T17:59:44.434Z,48.90
2018-07-24T18:02:11.931Z,50.70
2018-07-24T18:04:39.435Z,50.40
2018-07-24T18:07:07.390Z,50.90
2018-07-24T18:12:02.734Z,54.20
2018-07-24T18:14:30.679Z,54.90
2018-07-24T18:16:58.654Z,54.00
2018-07-24T18:19:26.626Z,54.30
2018-07-24T18:21:54.507Z,53.80
2018-07-24T18:24:22.030Z,55.30
2018-07-24T18:26:49.870Z,55.00
2018-07-24T18:29:17.411Z,55.20
2018-07-24T18:31:45.022Z,56.00
2018-07-24T18:34:12.988Z,57.00
2018-07-24T18:36:40.883Z,59.40
2018-07-24T18:39:09.177Z,59.70
2018-07-24T18:41:37.415Z,61.60
2018-07-24T18:44:05.972Z,62.50
2018-07-24T18:46:33.935Z,60.20
2018-07-24T18:49:01.535Z,59.40
2018-07-24T18:51:29.118Z,59.40
2018-07-24T18:53:57.244Z,59.00
2018-07-24T18:56:25.254Z,59.20
2018-07-24T18:58:52.801Z,59.60
2018-07-24T19:01:20.797Z,61.70
2018-07-24T19:03:48.774Z,63.20
2018-07-24T19:06:16.799Z,62.20
2018-07-24T19:08:44.331Z,62.80
2018-07-24T19:11:11.903Z,63.10
2018-07-24T19:13:40.551Z,66.70
2018-07-24T19:16:08.065Z,68.60
2018-07-24T19:18:35.990Z,66.20
2018-07-24T19:21:04.611Z,65.90
2018-07-24T19:23:33.171Z,65.40
2018-07-24T19:26:01.264Z,65.40
2018-07-24T19:28:28.783Z,65.20
2018-07-24T19:30:57.120Z,65.60
2018-07-24T19:33:24.718Z,66.30
2018-07-24T19:35:52.628Z,69.90
2018-07-24T19:38:20.141Z,70.30
2018-07-24T19:40:48.295Z,70.20
2018-07-24T19:43:16.155Z,68.40
2018-07-24T19:45:44.083Z,68.40
2018-07-24T19:48:12.495Z,68.00
2018-07-24T19:50:40.438Z,68.40
2018-07-24T19:55:36.902Z,71.10
2018-07-24T19:58:05.105Z,69.70
2018-07-24T20:00:33.874Z,69.90
2018-07-24T20:03:02.568Z,69.30
2018-07-24T20:05:31.678Z,71.20
2018-07-24T20:08:00.122Z,72.30
2018-07-24T20:10:28.953Z,73.40
2018-07-24T20:12:57.675Z,72.10
2018-07-24T20:15:25.547Z,72.90
2018-07-24T20:17:54.130Z,71.80
2018-07-24T20:20:22.393Z,73.00
2018-07-24T20:22:51.104Z,72.60
2018-07-24T20:25:19.305Z,72.50
2018-07-24T20:27:47.923Z,72.80
2018-07-24T20:30:15.670Z,74.10
2018-07-24T20:32:44.141Z,74.20
2018-07-24T20:35:13.853Z,73.90
2018-07-24T20:37:42.476Z,75.50
2018-07-24T20:40:10.486Z,74.50
2018-07-24T20:42:38.758Z,74.40
2018-07-24T20:45:07.001Z,75.20
2018-07-24T20:47:35.310Z,79.10
2018-07-24T20:50:03.811Z,76.10
2018-07-24T20:52:31.543Z,75.20
2018-07-24T20:55:00.124Z,75.90
2018-07-24T20:57:27.830Z,75.30
2018-07-24T20:59:56.096Z,77.30
2018-07-24T21:02:24.322Z,79.00
2018-07-24T21:04:52.919Z,81.00
2018-07-24T21:07:20.894Z,78.40
2018-07-24T21:09:49.018Z,77.70
2018-07-24T21:12:16.922Z,82.80
2018-07-24T21:14:45.307Z,79.40
2018-07-24T21:17:13.487Z,79.00
2018-07-24T21:19:42.052Z,78.30
2018-07-24T21:22:10.556Z,77.70
2018-07-24T21:24:39.734Z,77.70
2018-07-24T21:27:08.119Z,77.50
2018-07-24T21:29:36.753Z,79.00
2018-07-24T21:32:04.605Z,79.30
2018-07-24T21:34:33.287Z,78.90
2018-07-24T21:37:00.766Z,78.40
2018-07-24T21:39:28.270Z,79.80
2018-07-24T21:41:55.827Z,82.40
2018-07-24T21:44:24.129Z,84.40
2018-07-24T21:46:51.667Z,84.60
2018-07-24T21:49:19.984Z,82.80
2018-07-24T21:54:15.486Z,81.40
2018-07-24T21:56:43.667Z,84.20
2018-07-24T22:01:39.211Z,83.10
2018-07-24T22:06:34.945Z,82.50
2018-07-24T22:09:02.781Z,82.20
2018-07-24T22:11:30.830Z,82.80
2018-07-24T22:13:59.030Z,84.00
2018-07-24T22:16:26.590Z,83.60
2018-07-24T22:18:54.129Z,83.40
2018-07-24T22:21:22.753Z,83.70
2018-07-24T22:23:50.902Z,82.70
2018-07-24T22:26:19.771Z,83.50
2018-07-24T22:28:47.675Z,86.90
2018-07-24T22:31:15.915Z,84.80
2018-07-24T22:33:43.629Z,85.90
2018-07-24T22:36:11.491Z,85.70
2018-07-24T22:38:39.633Z,84.50
2018-07-24T22:43:35.091Z,83.70
2018-07-24T22:46:03.177Z,84.60
2018-07-24T22:48:30.695Z,83.40
2018-07-24T22:50:58.526Z,83.90
2018-07-24T22:53:26.046Z,83.60
2018-07-24T22:55:54.015Z,84.00
2018-07-24T22:58:21.542Z,84.40
2018-07-24T23:00:49.082Z,86.60
2018-07-24T23:03:16.602Z,86.50
2018-07-24T23:05:44.593Z,85.80
2018-07-24T23:08:12.774Z,86.10
2018-07-24T23:13:08.639Z,85.60
2018-07-24T23:15:36.205Z,86.80
2018-07-24T23:18:03.819Z,85.90
2018-07-24T23:20:31.851Z,85.80
2018-07-24T23:22:59.726Z,87.90
2018-07-24T23:25:27.614Z,87.50
2018-07-24T23:27:55.639Z,87.50
2018-07-24T23:30:23.710Z,85.60
2018-07-24T23:32:51.894Z,86.20
2018-07-24T23:35:19.394Z,85.70
2018-07-24T23:37:46.891Z,86.10
2018-07-24T23:40:14.427Z,86.40
2018-07-24T23:42:42.282Z,87.60
2018-07-24T23:45:10.163Z,91.10
2018-07-24T23:47:37.670Z,88.80
2018-07-24T23:50:05.918Z,89.20
2018-07-24T23:52:34.755Z,87.90
2018-07-24T23:55:02.264Z,86.70
2018-07-24T23:57:29.758Z,87.00
2018-07-24T23:59:57.286Z,87.90
